Crouch, ID

1:58 AM MST on December 29, 2014 (GMT -0700)
Nampa | Change Station
CLOSE
Current Station
Airport
Location: Nampa,
Elevation: 2536 ft
Nearby Weather Stations

Elev 2536 ft 43.58 °N, 116.52 °W | Updated 23 minutes ago

Mostly Cloudy
Mostly Cloudy
27 °F
Feels Like 27 °F
N
0
Wind Variable Wind from North

Today
High -- | Low -- °F
--% Chance of Precip.
Yesterday
High -- | Low -- °F
Precip. -- in
8:17 AM 5:12 PM
First Quarter, 57% visible
Pressure 30.11 in
Visibility 0.2 miles
Clouds Overcast 200 ft
Dew Point 27 °F
Humidity 100%
Rainfall 0.00 in
Snow Depth Not available.
UV 0 out of 12
Pollen .10 out of 12
Air Quality Not available.
Flu Activity Not available.
METAR KMAN 290835Z AUTO 00000KT 1/4SM OVC002 M03/M03 A3011 RMK AO1

More Conditions Fewer Conditions

Pressure 30.11 in
Visibility 0.2 miles
Clouds Overcast 200 ft
Dew Point 27 °F
Humidity 100%
Rainfall 0.00 in
Snow Depth Not available.
UV 0 out of 12
Pollen .10 out of 12
Air Quality Not available.
Flu Activity Not available.
METAR KMAN 290835Z AUTO 00000KT 1/4SM OVC002 M03/M03 A3011 RMK AO1

More Conditions Fewer Conditions

10-Day Weather Forecast

Almanac

Astronomy

Dec. 29, 2014 Rise Set
Actual Time
Civil Twilight
Nautical Twilight
Astronomical Twilight
Moon
Length of Visible Light
Length of Day
Tomorrow will be .
, % of the Moon is Illuminated

Today's Extremes

State Highs State Lows

Community

WunderPhotos

Upload Photos

1,781,558 photos uploaded!

WunderBlogs® & News

Nearby

Air Quality

  Air Quality AQ Index Pollutant
Not available.

Snow Depth

Station Depth Elevation

Earthquake Activity

City Distance Mag. Time & Date
Minimum magnitude displayed is 2.5.

Coastal Water Temperatures

Place Temperature

Nearby Weather Stations